Time;durP1;ratioP1;P1;durP2;ratioP2;P2;SDS_P1;SDS_P2;PMS_P1;PMS_P2;Temp;Humidity;BMP_temperature;BMP_pressure;BME280_temperature;BME280_humidity;BME280_pressure;Samples;Min_cycle;Max_cycle;Signal;HPM_P1;HPM_P2
2021/11/01 00:01:14;;;;;;;65.10;26.27;;;;;;;-0.04;71.92;102039.22;1651863;87;21240;-65
2021/11/01 00:03:51;;;;;;;51.40;22.35;;;;;;;-0.03;72.08;102040.94;1622116;88;21156;-65
2021/11/01 00:06:25;;;;;;;54.73;22.62;;;;;;;-0.04;72.15;102037.50;1652933;86;21287;-65
2021/11/01 00:09:04;;;;;;;55.03;23.02;;;;;;;-0.04;72.14;102039.22;1622064;88;21213;-65
2021/11/01 00:11:42;;;;;;;45.67;20.17;;;;;;;-0.07;72.08;102035.41;1651371;86;21200;-65
2021/11/01 00:14:22;;;;;;;55.38;21.48;;;;;;;-0.07;72.23;102038.84;1652090;87;21161;-66
2021/11/01 00:16:57;;;;;;;48.45;20.50;;;;;;;-0.09;72.18;102037.16;1659322;86;21302;-65
2021/11/01 00:19:34;;;;;;;46.92;19.70;;;;;;;-0.12;72.09;102039.81;1629520;87;21399;-66
2021/11/01 00:22:14;;;;;;;44.27;19.42;;;;;;;-0.14;72.15;102040.25;1656479;86;21249;-66
2021/11/01 00:24:52;;;;;;;50.05;19.48;;;;;;;-0.14;72.29;102035.09;1636029;88;21187;-67
2021/11/01 00:27:25;;;;;;;46.63;21.25;;;;;;;-0.14;72.36;102037.23;1672568;85;21137;-67
2021/11/01 00:30:10;;;;;;;45.08;18.73;;;;;;;-0.14;72.33;102040.25;1682407;85;21176;-66
2021/11/01 00:32:47;;;;;;;47.20;18.90;;;;;;;-0.16;72.36;102035.14;1672036;85;21164;-65
2021/11/01 00:35:25;;;;;;;55.60;20.00;;;;;;;-0.15;72.48;102035.98;1672569;85;21295;-65
2021/11/01 00:37:59;;;;;;;48.45;20.43;;;;;;;-0.15;72.54;102031.70;1636455;88;21266;-65
2021/11/01 00:40:32;;;;;;;44.23;18.55;;;;;;;-0.16;72.41;102025.27;1666104;86;21343;-66
2021/11/01 00:43:11;;;;;;;54.42;20.62;;;;;;;-0.18;72.32;102028.31;1636184;88;21326;-65
2021/11/01 00:45:47;;;;;;;44.85;19.50;;;;;;;-0.20;72.24;102032.64;1665618;86;21343;-65
2021/11/01 00:48:27;;;;;;;46.95;20.27;;;;;;;-0.22;72.13;102024.95;1677898;85;21275;-65
2021/11/01 00:51:01;;;;;;;45.15;19.05;;;;;;;-0.23;72.01;102024.53;1661324;86;21715;-65
2021/11/01 00:53:47;;;;;;;40.90;18.57;;;;;;;-0.25;71.84;102028.00;1662764;86;21345;-66
2021/11/01 00:56:22;;;;;;;38.10;18.67;;;;;;;-0.29;71.86;102026.36;1656717;86;21790;-66
2021/11/01 00:59:06;;;;;;;48.90;18.40;;;;;;;-0.30;71.86;102025.50;1636134;88;21908;-66
2021/11/01 01:01:44;;;;;;;44.33;18.98;;;;;;;-0.32;71.71;102023.83;1664080;86;21323;-66
2021/11/01 01:04:24;;;;;;;46.95;18.67;;;;;;;-0.36;71.72;102025.59;1683482;85;21168;-66
2021/11/01 01:06:57;;;;;;;42.03;17.57;;;;;;;-0.38;71.62;102020.91;1682906;85;21290;-66
2021/11/01 01:09:32;;;;;;;44.77;18.00;;;;;;;-0.40;71.69;102020.52;1680619;85;21307;-66
2021/11/01 01:12:13;;;;;;;42.88;17.37;;;;;;;-0.43;71.78;102017.55;1635250;88;21236;-66
2021/11/01 01:14:57;;;;;;;38.08;17.05;;;;;;;-0.43;71.88;102011.58;1641939;86;21182;-65
2021/11/01 01:17:29;;;;;;;41.98;17.20;;;;;;;-0.45;71.89;102011.59;1656428;86;21309;-65
2021/11/01 01:20:10;;;;;;;41.50;18.35;;;;;;;-0.48;71.67;102006.52;1650519;86;21234;-65
2021/11/01 01:22:52;;;;;;;44.53;17.27;;;;;;;-0.49;71.62;102008.66;1662648;85;21211;-66
2021/11/01 01:25:40;;;;;;;38.48;17.98;;;;;;;-0.50;71.79;102004.84;1636274;88;21176;-66
2021/11/01 01:28:15;;;;;;;44.88;19.52;;;;;;;-0.50;71.92;102003.55;1670990;85;21271;-65
2021/11/01 01:30:55;;;;;;;43.13;20.68;;;;;;;-0.50;71.99;101999.23;1683869;85;21224;-65
2021/11/01 01:33:32;;;;;;;45.03;19.57;;;;;;;-0.50;72.04;101996.66;1665978;85;21216;-65
2021/11/01 01:36:07;;;;;;;44.48;19.57;;;;;;;-0.51;72.01;101996.69;1636049;88;21266;-65
2021/11/01 01:38:42;;;;;;;42.13;17.00;;;;;;;-0.53;71.90;101999.73;1645606;86;21329;-65
2021/11/01 01:41:19;;;;;;;41.58;17.55;;;;;;;-0.55;72.01;102001.48;1635359;87;21247;-65
2021/11/01 01:44:00;;;;;;;41.70;17.80;;;;;;;-0.55;72.25;102001.48;1663341;86;21204;-65
2021/11/01 01:46:38;;;;;;;40.28;17.15;;;;;;;-0.53;72.39;102010.02;1678412;85;21208;-65
2021/11/01 01:49:17;;;;;;;34.88;15.78;;;;;;;-0.54;72.37;102005.73;1636296;88;21274;-65
2021/11/01 01:51:50;;;;;;;36.88;15.65;;;;;;;-0.54;72.42;102007.02;1664084;86;21180;-66
2021/11/01 01:54:23;;;;;;;32.13;14.53;;;;;;;-0.53;72.52;102005.73;1676186;85;21279;-67
2021/11/01 01:56:59;;;;;;;42.17;15.32;;;;;;;-0.52;72.54;102002.27;1683481;85;21185;-66
2021/11/01 01:59:36;;;;;;;38.42;15.10;;;;;;;-0.53;72.41;101998.45;1655649;86;21279;-66
2021/11/01 02:02:13;;;;;;;30.48;15.35;;;;;;;-0.55;72.38;102004.05;1635654;88;21314;-66
2021/11/01 02:04:52;;;;;;;48.38;16.60;;;;;;;-0.58;72.42;102014.38;1669716;85;21311;-67
2021/11/01 02:07:36;;;;;;;48.68;19.02;;;;;;;-0.59;72.24;102014.81;1683187;85;21311;-67
2021/11/01 02:10:17;;;;;;;53.48;19.73;;;;;;;-0.67;72.03;102010.23;1650693;85;21319;-66
2021/11/01 02:13:02;;;;;;;44.20;16.45;;;;;;;-0.70;71.99;102009.84;1635363;88;21305;-66
2021/11/01 02:15:41;;;;;;;56.95;19.82;;;;;;;-0.72;71.96;102006.87;1662688;86;21331;-67
2021/11/01 02:18:14;;;;;;;48.78;17.40;;;;;;;-0.75;71.75;102007.77;1662672;85;21295;-67
2021/11/01 02:21:07;;;;;;;40.67;16.70;;;;;;;-0.81;71.58;102007.84;1657781;85;21299;-66
2021/11/01 02:23:55;;;;;;;41.37;15.08;;;;;;;-0.82;71.58;102011.73;1620648;88;21215;-66
2021/11/01 02:26:36;;;;;;;33.18;14.95;;;;;;;-0.82;71.74;102011.73;1621849;88;21318;-65
2021/11/01 02:29:09;;;;;;;27.67;13.20;;;;;;;-0.84;71.77;102010.48;1622221;88;21734;-64
2021/11/01 02:31:44;;;;;;;31.65;14.07;;;;;;;-0.83;71.84;102007.45;1622438;88;21290;-65
2021/11/01 02:34:19;;;;;;;31.20;13.65;;;;;;;-0.84;71.99;102007.05;1620976;88;21176;-65
2021/11/01 02:36:52;;;;;;;31.27;13.50;;;;;;;-0.84;72.04;101999.34;1602725;88;21197;-65
2021/11/01 02:39:26;;;;;;;25.23;12.63;;;;;;;-0.83;72.04;102004.45;1621758;88;21225;-65
2021/11/01 02:42:01;;;;;;;33.08;13.70;;;;;;;-0.81;72.09;102000.56;1622032;88;21270;-65
2021/11/01 02:44:34;;;;;;;32.55;14.87;;;;;;;-0.79;71.95;101999.66;1620710;88;21260;-64
2021/11/01 02:47:18;;;;;;;31.07;13.15;;;;;;;-0.82;71.76;101993.31;1602452;88;21188;-65
2021/11/01 02:49:51;;;;;;;27.60;13.28;;;;;;;-0.83;71.62;101993.31;1623201;88;21279;-65
2021/11/01 02:52:24;;;;;;;;;;;;;;;-0.84;71.68;101991.62;1623133;88;21168;-65
2021/11/01 02:55:06;;;;;;;24.55;12.00;;;;;;;-0.85;71.72;101989.48;1615687;89;20205;-65
2021/11/01 02:57:42;;;;;;;27.58;13.43;;;;;;;-0.87;71.88;101987.38;1621035;88;21549;-65
2021/11/01 03:00:24;;;;;;;24.05;12.55;;;;;;;-0.83;72.06;101974.88;1621874;88;21278;-66
2021/11/01 03:02:59;;;;;;;31.60;13.43;;;;;;;-0.85;72.06;101970.20;1621471;88;21501;-66
2021/11/01 03:05:33;;;;;;;25.75;12.60;;;;;;;-0.85;72.15;101983.48;1622126;88;21310;-66
2021/11/01 03:08:07;;;;;;;26.77;11.83;;;;;;;-0.87;72.22;101973.23;1622020;88;21830;-66
2021/11/01 03:10:41;;;;;;;26.05;12.07;;;;;;;-0.86;72.44;101979.23;1621643;88;22093;-66
2021/11/01 03:13:14;;;;;;;27.75;12.20;;;;;;;-0.85;72.54;101983.05;1621622;88;21302;-66
2021/11/01 03:15:51;;;;;;;27.00;12.18;;;;;;;-0.83;72.72;101983.02;1620492;88;21183;-66
2021/11/01 03:18:27;;;;;;;;;;;;;;;-0.81;72.76;101987.27;1623813;88;21207;-66
2021/11/01 03:21:04;;;;;;;28.10;12.00;;;;;;;-0.81;72.73;101986.41;1617089;88;20246;-66
2021/11/01 03:23:41;;;;;;;31.25;12.43;;;;;;;-0.84;72.78;101991.20;1615195;88;21312;-66
2021/11/01 03:26:17;;;;;;;30.60;12.53;;;;;;;-0.82;72.89;101983.45;1595362;89;21328;-66
2021/11/01 03:28:55;;;;;;;25.15;11.90;;;;;;;-0.79;72.97;101983.41;1614227;89;22045;-66
2021/11/01 03:31:28;;;;;;;23.47;10.93;;;;;;;-0.79;72.93;101986.81;1622599;87;21278;-66
2021/11/01 03:34:02;;;;;;;32.30;11.95;;;;;;;-0.82;72.76;101980.45;1659322;86;21188;-66
2021/11/01 03:36:37;;;;;;;24.23;10.80;;;;;;;-0.84;72.83;101982.63;1660681;86;21145;-65
2021/11/01 03:39:15;;;;;;;29.10;12.03;;;;;;;-0.84;72.93;101983.91;1621636;88;21176;-66
2021/11/01 03:41:54;;;;;;;23.75;11.40;;;;;;;-0.85;73.09;101975.34;1661579;86;21165;-66
2021/11/01 03:44:33;;;;;;;25.30;11.78;;;;;;;-0.83;73.19;101975.31;1659979;86;21873;-66
2021/11/01 03:47:08;;;;;;;28.77;14.13;;;;;;;-0.82;73.19;101976.59;1660993;85;21298;-66
2021/11/01 03:49:58;;;;;;;24.95;12.00;;;;;;;-0.81;73.19;101964.13;1660757;86;21398;-66
2021/11/01 03:52:33;;;;;;;28.35;12.25;;;;;;;-0.81;73.11;101958.98;1662216;86;21208;-66
2021/11/01 03:55:08;;;;;;;24.27;11.93;;;;;;;-0.81;73.08;101956.42;1660619;86;21830;-65
2021/11/01 03:57:43;;;;;;;27.30;12.93;;;;;;;-0.81;73.07;101958.13;1660133;86;21365;-66
2021/11/01 04:00:17;;;;;;;28.40;14.13;;;;;;;-0.84;72.96;101953.06;1660167;85;21347;-66
2021/11/01 04:02:51;;;;;;;34.98;15.75;;;;;;;-0.89;73.07;101961.27;1662014;85;21355;-65
2021/11/01 04:05:26;;;;;;;37.33;17.57;;;;;;;-0.87;73.31;101963.38;1659719;86;21236;-66
2021/11/01 04:08:01;;;;;;;33.83;14.83;;;;;;;-0.84;73.37;101949.20;1661382;86;21287;-66
2021/11/01 04:10:37;;;;;;;31.85;14.40;;;;;;;-0.82;73.28;101946.17;1660660;85;21180;-66
2021/11/01 04:13:12;;;;;;;36.63;15.45;;;;;;;-0.81;73.21;101947.84;1661291;86;21181;-66
2021/11/01 04:15:52;;;;;;;35.63;15.18;;;;;;;-0.80;73.10;101939.27;1621634;88;21306;-65
2021/11/01 04:18:49;;;;;;;42.23;16.23;;;;;;;-0.81;73.22;101941.42;1653622;86;21146;-65
2021/11/01 04:21:11;;;;;;;30.10;13.45;;;;;;;-0.78;73.40;101942.23;1622094;87;21306;-65
2021/11/01 04:23:41;;;;;;;35.60;14.13;;;;;;;-0.74;73.52;101945.16;1652061;86;21525;-66
2021/11/01 04:26:19;;;;;;;34.58;14.05;;;;;;;-0.63;73.66;101941.15;1651527;87;21230;-66
2021/11/01 04:28:55;;;;;;;35.73;14.78;;;;;;;-0.41;73.62;101935.22;1650884;86;21213;-66
2021/11/01 04:31:34;;;;;;;33.83;14.70;;;;;;;-0.12;73.43;101932.98;1652105;87;21209;-66
2021/11/01 04:34:26;;;;;;;36.13;14.43;;;;;;;0.20;73.01;101930.62;1652173;87;21351;-66
2021/11/01 04:36:51;;;;;;;37.90;15.70;;;;;;;0.54;72.50;101928.22;1621684;87;21327;-67
2021/11/01 04:42:44;;;;;;;48.02;20.37;;;;;;;1.34;70.98;101927.22;1661141;85;21255;-67
2021/11/01 04:53:22;;;;;;;30.97;12.90;;;;;;;3.37;66.43;101923.96;1652099;87;21158;-68
2021/11/01 04:55:54;;;;;;;24.92;11.68;;;;;;;3.91;65.00;101927.76;1651528;87;21200;-68
2021/11/01 04:58:29;;;;;;;19.70;10.35;;;;;;;4.41;63.51;101919.02;1652353;87;21174;-68
2021/11/01 05:01:06;;;;;;;21.25;10.15;;;;;;;4.92;62.15;101921.36;1650953;86;21209;-68
2021/11/01 05:03:48;;;;;;;17.55;10.08;;;;;;;5.46;60.55;101917.02;1652048;87;21338;-69
2021/11/01 05:06:25;;;;;;;18.85;10.20;;;;;;;5.93;58.99;101917.19;1651394;87;22161;-69
2021/11/01 05:09:11;;;;;;;19.32;10.10;;;;;;;6.43;57.43;101921.45;1652132;87;21360;-69
2021/11/01 05:17:24;;;;;;;19.20;10.72;;;;;;;7.72;52.75;101907.39;1649530;87;21165;-68
2021/11/01 05:22:32;;;;;;;17.10;9.88;;;;;;;8.63;50.24;101917.79;1655869;86;21849;-70
2021/11/01 05:31:06;;;;;;;15.70;10.23;;;;;;;9.39;47.47;101915.19;1692138;83;21260;-68
2021/11/01 05:36:12;;;;;;;21.37;9.93;;;;;;;8.34;47.84;101920.66;1691163;84;21353;-68
2021/11/01 05:38:46;;;;;;;24.30;11.83;;;;;;;7.70;48.52;101912.69;1690473;85;21187;-66
2021/11/01 05:41:19;;;;;;;32.33;17.02;;;;;;;7.19;49.52;101917.86;1688079;84;21306;-68
2021/11/01 05:43:53;;;;;;;32.00;17.23;;;;;;;6.86;50.40;101924.67;1695185;84;22034;-64
2021/11/01 05:46:33;;;;;;;;;;;;;;;6.88;50.98;101917.66;1689004;85;21957;-68
2021/11/01 05:49:05;;;;;;;32.23;15.10;;;;;;;6.83;51.16;101910.04;1689218;85;20354;-68
2021/11/01 05:51:38;;;;;;;26.50;12.15;;;;;;;6.56;51.72;101908.73;1688779;85;21334;-64
2021/11/01 06:04:03;;;;;;;19.50;10.93;;;;;;;5.38;54.92;101904.80;1704088;83;21302;-60
2021/11/01 06:06:59;;;;;;;20.23;10.00;;;;;;;5.22;55.81;101899.84;1688416;85;21553;-65
2021/11/01 06:09:31;;;;;;;18.10;9.63;;;;;;;5.00;56.58;101898.56;1686582;84;21322;-65
2021/11/01 06:16:04;;;;;;;19.70;10.93;;;;;;;4.74;58.20;101889.20;1716443;82;21283;-64
2021/11/01 06:18:40;;;;;;;19.60;10.60;;;;;;;4.55;59.38;101896.45;1689738;85;21353;-63
2021/11/01 06:25:24;;;;;;;20.77;10.53;;;;;;;4.50;60.71;101891.44;1686996;84;22098;-67
2021/11/01 06:27:58;;;;;;;23.30;11.38;;;;;;;4.47;61.21;101893.28;1685886;85;22244;-64
